Terminal Aerodrome Forecast
Issued by NWS

Home | Current Version | Previous Version | Graphics & Text | Print | Product List | Glossary On
Versions: 1 2 3 4 5 6 7 8 9 10 11 12 13 14
000
FTUS43 KBIS 151700 RRA
TAFDIK
TAF
KDIK 151741Z 1518/1618 15018G27KT P6SM BKN100
     FM160000 10014KT P6SM VCSH BKN050
     FM160300 09010KT P6SM -RASN OVC030
     FM160500 08010KT 3SM -SN OVC015
     FM161100 04008KT 4SM BR OVC007=

USA.gov is the U.S. government's official web portal to all federal, state and local government web resources and services.